Flight Track Log - Related Links

Times and Time Zones

All times are in EDT time to prevent confusion due to time zone crossing. See the AWI3916 flight status page for this flight to view local times or setup timezone preferences in your user account.


Time Position Orientation Groundspeed Altitude Reporting Facility
EDT Latitude Longitude Course Direction KTS MPH feet Rate Location/Type
Fri 01:53:48 PM 39.8667 -75.2667 311° West 148 170 900  Level Philadelphia TRACON
Fri 01:55:12 PM 39.8500 -75.3667 258° West 231 266 3,600 2,417 Climbing Philadelphia TRACON
Fri 01:56:00 PM 40.0833 -75.4333 323° Northwest  Level FlightAware Approximate
Fri 01:56:12 PM 39.9000 -75.4167 323° Northwest 236 272 6,700  Level Philadelphia TRACON
Fri 01:57:00 PM 40.1571 -75.5070 323° Northwest  Level FlightAware Approximate
Fri 01:57:18 PM 39.9667 -75.4500 339° North 254 292 10,000  Level Philadelphia TRACON
Fri 01:58:00 PM 40.2312 -75.5717 311° West  Level FlightAware Approximate
Fri 01:58:18 PM 40.0333 -75.4833 339° North 299 344 11,600  Level Philadelphia TRACON
Fri 01:59:00 PM 40.2898 -75.6596 311° West  Level FlightAware Approximate
Fri 01:59:15 PM 40.1017 -75.5092 344° North 352 405 13,000  Level New York Center
Fri 02:00:14 PM 40.1978 -75.5536 341° North 347 399 13,000 958 Level New York Center
Fri 02:01:14 PM 40.2717 -75.6322 321° Northwest 332 382 14,900 1,950 Climbing New York Center
Fri 02:02:14 PM 40.3247 -75.7150 310° West 327 376 16,900 1,041 Climbing New York Center
Fri 02:03:15 PM 40.3853 -75.8064 311° West 327 376 17,000 50 Climbing New York Center
Fri 02:04:14 PM 40.4431 -75.9169 305° West 338 389 17,000  Level New York Center
Fri 02:05:14 PM 40.4631 -76.0331 283° West 326 375 17,000 350 Level New York Center
Fri 02:06:14 PM 40.4825 -76.1547 282° West 340 391 17,700 500 Climbing New York Center
Fri 02:07:14 PM 40.5003 -76.2653 282° West 346 398 18,000 149 Climbing New York Center
Fri 02:08:15 PM 40.5211 -76.3981 282° West 340 391 18,000  Level New York Center
Fri 02:09:14 PM 40.5406 -76.5169 282° West 333 383 18,000  Level New York Center
Fri 02:10:14 PM 40.5683 -76.6314 288° West 333 383 18,000  Level New York Center
Fri 02:11:14 PM 40.6114 -76.7253 301° West 333 383 18,000  Level New York Center
Fri 02:12:14 PM 40.6564 -76.8278 300° West 333 383 18,000  Level New York Center
Fri 02:13:14 PM 40.7514 -76.8856 335° Northwest 323 372 18,000  Level New York Center
Fri 02:14:14 PM 40.8353 -76.9122 346° North 339 390 18,000  Level New York Center
Fri 02:15:14 PM 40.9233 -76.9419 346° North 354 407 18,000  Level New York Center
Fri 02:16:14 PM 41.0381 -76.9800 346° North 354 407 18,000  Level New York Center
Fri 02:17:14 PM 41.1344 -77.0108 346° North 354 407 18,000  Level New York Center
Fri 02:19:10 PM 41.3000 -77.0625 347° North 348 400 18,000  Level Cleveland Center
Fri 02:20:12 PM 41.4117 -77.0983 346° North 347 399 18,000  Level Cleveland Center
Fri 02:21:14 PM 41.5100 -77.1308 346° North 362 417 18,000  Level Cleveland Center
Fri 02:22:14 PM 41.6158 -77.1667 346° North 359 413 18,000  Level New York Center
Fri 02:24:20 PM 41.8325 -77.2364 347° North 380 437 18,000  Level Cleveland Center
Fri 02:25:22 PM 41.9369 -77.2714 346° North 385 443 18,000  Level Cleveland Center
Fri 02:26:24 PM 42.0392 -77.3056 346° North 385 443 18,000  Level Cleveland Center
Fri 02:27:27 PM 42.1436 -77.3406 346° North 385 443 18,000 -432 Level Cleveland Center
Fri 02:28:29 PM 42.2478 -77.3753 346° North 385 443 17,100 -1,210 Descending Cleveland Center
Fri 02:29:31 PM 42.3489 -77.4083 346° North 383 441 15,500 -1,694 Descending Cleveland Center
Fri 02:30:33 PM 42.4636 -77.4472 346° North 369 425 13,600 -1,826 Descending Cleveland Center
Fri 02:31:03 PM 42.5142 -77.4656 345° North 351 404 12,700 -1,548 Descending Cleveland Center
Fri 02:31:35 PM 42.5583 -77.4808 346° North 358 412 12,000 -1,574 Descending Cleveland Center
Fri 02:32:04 PM 42.6064 -77.4894 352° North 334 384 11,100 -1,548 Descending Cleveland Center
Fri 02:32:37 PM 42.6450 -77.4928 356° North 312 359 10,400 -1,400 Descending Cleveland Center
Fri 02:33:04 PM 42.6858 -77.4986 354° North 266 306 9,700 -1,452 Descending Cleveland Center
Fri 02:33:39 PM 42.7169 -77.5025 355° North 277 319 8,900 -1,967 Descending Cleveland Center
Fri 02:34:05 PM 42.7611 -77.5067 356° North 260 299 7,700 -2,323 Descending Cleveland Center
Fri 02:34:41 PM 42.8014 -77.5128 354° North 261 300 6,500 -2,000 Descending Cleveland Center
Fri 02:35:05 PM 42.8297 -77.5161 355° North 255 293 5,700 -2,032 Descending Cleveland Center
Fri 02:35:43 PM 42.8706 -77.5208 355° North 257 296 4,400 -2,164 Descending Cleveland Center
Fri 02:36:06 PM 42.8983 -77.5256 353° North 250 288 3,500 -1,333 Descending Cleveland Center
Fri 02:36:46 PM 42.9392 -77.5300 355° North 253 291 3,000 -492 Descending Cleveland Center
Fri 02:37:07 PM 42.9633 -77.5308 359° North 221 254 3,000 -484 Level Cleveland Center
Fri 02:37:48 PM 42.9958 -77.5419 346° North 225 259 2,500 -500 Descending Cleveland Center
Fri 02:38:07 PM 43.0192 -77.5572 334° Northwest 191 220 2,500  Level Cleveland Center
Fri 02:38:50 PM 43.0444 -77.5717 337° Northwest 204 235 2,500 -197 Level Cleveland Center
Fri 02:39:08 PM 43.0642 -77.5836 336° Northwest 170 196 2,300 -677 Descending Cleveland Center
Fri 02:39:52 PM 43.0956 -77.6022 337° Northwest 182 209 1,800 -689 Descending Cleveland Center
Fri 02:40:09 PM 43.1031 -77.6083 329° Northwest 144 166 1,600 -774 Descending Cleveland Center
Fri 02:40:54 PM 43.1233 -77.6331 318° Northwest 160 184 1,000 -900 Descending Cleveland Center
Fri 02:41:09 PM 43.1231 -77.6483 269° West 127 146 700 -484 Descending Cleveland Center
Fri 02:41:56 PM 43.1231 -77.6758 270° West 146 168 500 -255 Descending Cleveland Center

Login

Don't have an account? Register now (free) for customized features, flight alerts, and more!